Time;durP1;ratioP1;P1;durP2;ratioP2;P2;SDS_P1;SDS_P2;PMS_P1;PMS_P2;Temp;Humidity;BMP_temperature;BMP_pressure;BME280_temperature;BME280_humidity;BME280_pressure;Samples;Min_cycle;Max_cycle;Signal;HPM_P1;HPM_P2
2023/07/17 00:00:21;;;;;;;10.40;3.40;;;18.00;99.90;;;;;;4995280;28;20945;-71
2023/07/17 00:02:47;;;;;;;6.33;3.03;;;18.10;99.90;;;;;;4995391;28;20165;-71
2023/07/17 00:05:12;;;;;;;3.80;2.40;;;18.20;99.90;;;;;;4994986;28;20220;-71
2023/07/17 00:07:40;;;;;;;4.90;3.17;;;18.30;99.90;;;;;;4993920;28;20205;-72
2023/07/17 00:10:10;;;;;;;3.70;3.03;;;18.30;99.90;;;;;;4995247;28;20175;-71
2023/07/17 00:12:37;;;;;;;3.90;3.50;;;18.40;99.90;;;;;;4994781;28;20772;-71
2023/07/17 00:15:05;;;;;;;2.57;2.33;;;18.60;99.90;;;;;;4994733;28;20523;-71
2023/07/17 00:17:32;;;;;;;8.80;3.20;;;18.70;99.90;;;;;;4994954;28;20491;-71
2023/07/17 00:19:58;;;;;;;5.73;3.23;;;18.80;99.90;;;;;;4998560;28;20786;-73
2023/07/17 00:22:24;;;;;;;4.50;2.80;;;18.90;99.90;;;;;;4998457;28;20411;-72
2023/07/17 00:24:51;;;;;;;6.00;2.90;;;19.00;99.90;;;;;;4995778;28;20274;-71
2023/07/17 00:27:17;;;;;;;3.40;2.50;;;19.00;99.90;;;;;;4994682;28;20404;-72
2023/07/17 00:29:46;;;;;;;3.40;3.10;;;19.10;99.90;;;;;;4994628;28;20410;-71
2023/07/17 00:32:12;;;;;;;2.43;1.83;;;19.10;99.90;;;;;;4997085;28;20177;-73
2023/07/17 00:34:39;;;;;;;3.73;2.53;;;19.20;99.90;;;;;;4999988;28;20921;-73
2023/07/17 00:37:05;;;;;;;4.70;3.00;;;19.20;99.90;;;;;;4995959;28;20420;-72
2023/07/17 00:39:31;;;;;;;4.87;3.00;;;19.20;99.90;;;;;;4994479;28;20428;-71
2023/07/17 00:41:57;;;;;;;4.53;2.37;;;19.20;99.90;;;;;;4994530;28;20405;-72
2023/07/17 00:44:23;;;;;;;3.30;2.20;;;19.20;99.90;;;;;;4994639;28;20248;-71
2023/07/17 00:46:52;;;;;;;4.27;2.50;;;19.10;99.90;;;;;;4994211;28;20443;-71
2023/07/17 00:49:18;;;;;;;3.30;3.00;;;19.20;99.90;;;;;;4994479;28;20602;-72
2023/07/17 00:51:44;;;;;;;4.07;2.17;;;19.10;99.90;;;;;;4994416;28;20772;-71
2023/07/17 00:54:11;;;;;;;2.93;1.90;;;19.10;99.90;;;;;;4994467;28;20885;-71
2023/07/17 00:56:37;;;;;;;4.77;2.47;;;19.10;99.90;;;;;;4994039;28;20427;-73
2023/07/17 00:59:04;;;;;;;5.83;2.80;;;19.10;99.90;;;;;;4998818;28;20467;-74
2023/07/17 01:01:31;;;;;;;3.50;2.43;;;19.00;99.90;;;;;;5000341;28;20490;-73
2023/07/17 01:03:59;;;;;;;3.87;2.23;;;19.00;99.90;;;;;;5000877;28;20404;-74
2023/07/17 01:06:27;;;;;;;3.53;2.20;;;18.90;99.90;;;;;;5000513;28;20440;-73
2023/07/17 01:08:53;;;;;;;3.40;2.17;;;18.90;99.90;;;;;;5002284;28;20420;-73
2023/07/17 01:11:18;;;;;;;4.40;2.83;;;18.80;99.90;;;;;;5004697;28;20423;-72
2023/07/17 01:13:45;;;;;;;3.30;2.80;;;18.70;99.90;;;;;;5004202;28;20260;-72
2023/07/17 01:16:11;;;;;;;3.73;2.70;;;18.60;99.90;;;;;;5005192;28;20585;-74
2023/07/17 01:18:36;;;;;;;4.57;2.37;;;18.50;99.90;;;;;;5002316;28;20440;-73
2023/07/17 01:21:05;;;;;;;3.33;2.00;;;18.40;99.90;;;;;;4995575;28;20235;-72
2023/07/17 01:23:31;;;;;;;3.93;3.53;;;18.40;99.90;;;;;;4993500;28;20169;-71
2023/07/17 01:25:57;;;;;;;4.70;2.10;;;18.30;99.90;;;;;;4993161;28;20400;-71
2023/07/17 01:28:22;;;;;;;2.83;1.90;;;18.20;99.90;;;;;;4993657;28;20435;-71
2023/07/17 01:30:48;;;;;;;2.73;1.70;;;18.20;99.90;;;;;;4993794;28;20173;-71
2023/07/17 01:33:14;;;;;;;2.70;1.40;;;18.20;99.90;;;;;;4993632;28;20224;-70
2023/07/17 01:35:39;;;;;;;2.13;1.40;;;18.20;99.90;;;;;;4993375;28;20173;-71
2023/07/17 01:38:05;;;;;;;4.13;1.80;;;18.20;99.90;;;;;;4993453;28;20553;-71
2023/07/17 01:40:30;;;;;;;2.37;1.63;;;18.10;99.90;;;;;;4993385;28;20284;-71
2023/07/17 01:42:56;;;;;;;2.03;1.67;;;18.10;99.90;;;;;;4993149;28;20260;-72
2023/07/17 01:45:21;;;;;;;1.70;1.60;;;18.10;99.90;;;;;;4993252;28;20512;-71
2023/07/17 01:47:47;;;;;;;2.23;1.37;;;18.00;99.90;;;;;;4993252;28;20181;-71
2023/07/17 01:50:12;;;;;;;7.43;2.70;;;18.00;99.90;;;;;;4993425;28;20179;-71
2023/07/17 01:52:38;;;;;;;2.70;2.00;;;17.90;99.90;;;;;;4993322;28;20169;-71
2023/07/17 01:55:04;;;;;;;4.33;1.73;;;17.80;99.90;;;;;;4992946;28;20209;-72
2023/07/17 01:57:29;;;;;;;3.50;2.30;;;17.80;99.90;;;;;;4993118;28;20181;-72
2023/07/17 01:59:55;;;;;;;3.50;2.27;;;17.80;99.90;;;;;;4993111;28;20247;-71
2023/07/17 02:02:20;;;;;;;4.83;2.37;;;17.70;99.90;;;;;;4995487;28;20193;-73
2023/07/17 02:04:46;;;;;;;1.90;1.47;;;17.70;99.90;;;;;;4996854;28;20165;-71
2023/07/17 02:07:11;;;;;;;2.80;1.80;;;17.70;99.90;;;;;;4992677;28;20177;-71
2023/07/17 02:09:37;;;;;;;3.47;2.20;;;17.60;99.90;;;;;;4993106;28;20191;-72
2023/07/17 02:12:03;;;;;;;3.30;2.80;;;17.60;99.90;;;;;;4992977;28;20175;-70
2023/07/17 02:14:28;;;;;;;2.27;1.50;;;17.70;99.90;;;;;;4993039;28;20529;-71
2023/07/17 02:16:54;;;;;;;2.50;2.30;;;17.60;99.90;;;;;;4992621;28;20404;-71
2023/07/17 02:19:19;;;;;;;2.73;2.40;;;17.60;99.90;;;;;;4992341;28;20228;-71
2023/07/17 02:21:45;;;;;;;3.00;1.97;;;17.70;99.90;;;;;;4992898;28;20255;-71
2023/07/17 02:24:10;;;;;;;5.73;1.87;;;17.60;99.90;;;;;;4998438;28;20173;-71
2023/07/17 02:26:36;;;;;;;3.17;2.10;;;17.60;99.90;;;;;;4992635;28;20165;-71
2023/07/17 02:29:02;;;;;;;4.07;2.13;;;17.50;99.90;;;;;;4995348;28;20235;-73
2023/07/17 02:31:28;;;;;;;4.13;2.80;;;17.40;99.90;;;;;;4992798;28;20594;-71
2023/07/17 02:33:55;;;;;;;1.80;1.67;;;17.20;99.90;;;;;;4992840;28;20408;-72
2023/07/17 02:36:21;;;;;;;2.07;1.73;;;17.10;99.90;;;;;;4993025;28;20629;-71
2023/07/17 02:38:46;;;;;;;1.90;1.70;;;17.00;99.90;;;;;;4992516;28;20428;-71
2023/07/17 02:41:13;;;;;;;2.20;1.90;;;17.00;99.90;;;;;;4992531;28;20200;-73
2023/07/17 02:43:39;;;;;;;3.53;2.00;;;16.90;99.90;;;;;;5000565;28;20161;-73
2023/07/17 02:46:05;;;;;;;2.17;1.73;;;16.90;99.90;;;;;;4998369;28;20426;-71
2023/07/17 02:48:30;;;;;;;3.20;1.93;;;16.80;99.90;;;;;;4993339;28;20244;-71
2023/07/17 02:50:56;;;;;;;2.17;1.80;;;16.60;99.90;;;;;;4992167;28;20204;-71
2023/07/17 02:53:21;;;;;;;6.57;2.37;;;16.60;99.90;;;;;;4993241;28;20191;-71
2023/07/17 02:55:47;;;;;;;2.97;2.10;;;16.50;99.90;;;;;;4995941;28;20168;-71
2023/07/17 02:58:16;;;;;;;3.33;2.30;;;16.50;99.90;;;;;;4997092;28;20228;-71
2023/07/17 03:00:41;;;;;;;3.23;2.00;;;16.40;99.90;;;;;;4996399;28;20283;-71
2023/07/17 03:03:07;;;;;;;3.17;1.93;;;16.30;99.90;;;;;;4996465;28;20499;-71
2023/07/17 03:05:35;;;;;;;5.07;2.30;;;16.30;99.90;;;;;;4996031;28;20164;-71
2023/07/17 03:08:00;;;;;;;4.10;2.17;;;16.30;99.90;;;;;;4996026;28;20912;-71
2023/07/17 03:10:27;;;;;;;4.53;1.97;;;16.20;99.90;;;;;;4996296;28;20467;-71
2023/07/17 03:12:53;;;;;;;3.30;2.13;;;16.20;99.90;;;;;;5002849;28;20690;-74
2023/07/17 03:15:18;;;;;;;3.77;2.30;;;16.20;99.90;;;;;;5006010;28;20423;-73
2023/07/17 03:17:44;;;;;;;3.30;2.13;;;16.30;99.90;;;;;;5005182;28;20682;-73
2023/07/17 03:20:10;;;;;;;2.57;2.17;;;16.30;99.90;;;;;;5006460;28;20220;-72
2023/07/17 03:22:36;;;;;;;3.10;2.03;;;16.40;99.90;;;;;;5005865;28;20169;-73
2023/07/17 03:25:04;;;;;;;3.10;1.90;;;16.40;99.90;;;;;;5004956;28;20486;-72
2023/07/17 03:27:30;;;;;;;9.93;2.23;;;16.40;99.90;;;;;;5004779;28;20499;-73
2023/07/17 03:29:56;;;;;;;2.13;1.70;;;16.30;99.90;;;;;;4997986;28;20503;-71
2023/07/17 03:32:21;;;;;;;3.63;2.40;;;16.30;99.90;;;;;;4994681;28;20172;-71
2023/07/17 03:34:47;;;;;;;4.40;2.47;;;16.30;99.90;;;;;;4995867;28;20846;-71
2023/07/17 03:37:13;;;;;;;2.83;2.10;;;16.30;99.90;;;;;;4995554;28;20200;-71
2023/07/17 03:39:38;;;;;;;2.50;2.30;;;16.40;99.90;;;;;;4995622;28;20199;-71
2023/07/17 03:42:10;;;;;;;4.27;2.13;;;16.30;99.90;;;;;;4995528;28;20201;-72
2023/07/17 03:44:36;;;;;;;4.10;2.60;;;16.20;99.90;;;;;;5001062;28;20687;-73
2023/07/17 03:47:01;;;;;;;2.50;2.23;;;16.10;99.90;;;;;;5002972;28;20424;-72
2023/07/17 03:49:27;;;;;;;3.77;1.90;;;16.10;99.90;;;;;;5003221;28;20435;-70
2023/07/17 03:51:52;;;;;;;2.70;2.10;;;16.00;99.90;;;;;;4995474;28;20299;-71
2023/07/17 03:54:18;;;;;;;4.10;2.40;;;15.90;99.90;;;;;;4998601;28;20175;-71
2023/07/17 03:56:44;;;;;;;2.23;1.70;;;15.90;99.90;;;;;;5004628;28;20173;-73
2023/07/17 03:59:09;;;;;;;2.53;1.93;;;15.90;99.90;;;;;;5004772;28;20211;-72
2023/07/17 04:01:35;;;;;;;2.63;2.30;;;15.80;99.90;;;;;;5002599;28;20239;-73
2023/07/17 04:04:00;;;;;;;3.03;2.20;;;15.80;99.90;;;;;;5002632;28;20272;-71
2023/07/17 04:06:26;;;;;;;2.87;2.37;;;15.70;99.90;;;;;;5001974;28;20779;-71
2023/07/17 04:08:51;;;;;;;4.77;2.30;;;15.80;99.90;;;;;;4999955;28;20273;-71
2023/07/17 04:11:17;;;;;;;2.17;1.97;;;15.80;99.90;;;;;;4995807;28;20224;-70
2023/07/17 04:13:44;;;;;;;5.10;1.87;;;15.80;99.90;;;;;;4996064;28;20265;-70
2023/07/17 04:16:09;;;;;;;2.53;1.80;;;15.80;99.90;;;;;;4995348;28;20204;-70
2023/07/17 04:18:35;;;;;;;4.60;2.63;;;15.80;99.90;;;;;;4995257;28;20502;-70
2023/07/17 04:21:00;;;;;;;2.57;2.37;;;15.90;99.90;;;;;;4995424;28;20208;-70
2023/07/17 04:23:26;;;;;;;3.40;2.13;;;15.80;99.90;;;;;;4995023;28;20809;-70
2023/07/17 04:25:51;;;;;;;4.10;2.03;;;15.90;99.90;;;;;;4995398;28;20161;-70
2023/07/17 04:28:17;;;;;;;4.00;2.07;;;15.90;99.90;;;;;;4995106;28;20678;-70
2023/07/17 04:30:43;;;;;;;2.23;2.00;;;15.90;99.90;;;;;;4994882;28;20180;-71
2023/07/17 04:33:08;;;;;;;3.40;2.13;;;15.90;99.90;;;;;;4994813;28;20408;-70
2023/07/17 04:35:39;;;;;;;4.40;2.40;;;15.90;99.90;;;;;;4994543;28;20231;-71
2023/07/17 04:38:04;;;;;;;2.63;2.07;;;15.90;99.90;;;;;;4994553;28;20599;-71
2023/07/17 04:40:30;;;;;;;5.17;2.93;;;15.90;99.90;;;;;;4993341;28;20543;-71
2023/07/17 04:43:00;;;;;;;2.80;1.60;;;16.00;99.90;;;;;;4994641;28;20922;-71
2023/07/17 04:45:26;;;;;;;1.80;1.70;;;16.00;99.90;;;;;;4994306;28;20405;-71
2023/07/17 04:47:51;;;;;;;4.90;1.87;;;16.00;99.90;;;;;;4994315;28;20427;-71
2023/07/17 04:50:17;;;;;;;3.57;1.87;;;16.20;99.90;;;;;;4994576;28;20412;-71
2023/07/17 04:52:43;;;;;;;5.53;2.10;;;16.20;99.90;;;;;;5001310;28;20169;-73
2023/07/17 04:55:09;;;;;;;3.43;1.60;;;16.30;99.90;;;;;;5002708;28;20184;-72
2023/07/17 04:57:34;;;;;;;6.40;2.40;;;16.40;99.90;;;;;;4998000;28;20176;-71
2023/07/17 05:00:00;;;;;;;3.30;2.00;;;16.50;99.90;;;;;;4994370;28;20474;-71
2023/07/17 05:02:26;;;;;;;1.93;1.70;;;16.50;99.90;;;;;;4994309;28;20169;-71
2023/07/17 05:04:51;;;;;;;2.67;2.20;;;16.60;99.90;;;;;;4994277;28;20897;-71
2023/07/17 05:07:17;;;;;;;3.33;1.80;;;16.70;99.90;;;;;;4994099;28;20181;-71
2023/07/17 05:09:43;;;;;;;4.33;3.70;;;16.70;99.90;;;;;;4994253;28;20300;-71
2023/07/17 05:12:08;;;;;;;2.97;2.17;;;16.70;99.90;;;;;;4994363;28;20173;-71
2023/07/17 05:14:34;;;;;;;1.83;1.60;;;16.80;99.90;;;;;;4994203;28;20400;-71
2023/07/17 05:16:59;;;;;;;2.67;2.10;;;16.90;99.90;;;;;;4993261;28;20184;-71
2023/07/17 05:19:25;;;;;;;3.67;1.87;;;17.00;99.90;;;;;;4993697;28;20197;-72
2023/07/17 05:21:51;;;;;;;6.47;2.60;;;17.10;99.90;;;;;;4994022;28;20196;-71
2023/07/17 05:24:16;;;;;;;2.47;1.80;;;17.20;99.90;;;;;;4993887;28;20212;-71
2023/07/17 05:26:42;;;;;;;2.10;1.67;;;17.30;99.90;;;;;;4993641;28;20169;-71
2023/07/17 05:29:07;;;;;;;5.07;3.53;;;17.40;99.90;;;;;;4993813;28;20188;-71
2023/07/17 05:31:33;;;;;;;6.70;3.20;;;17.50;99.90;;;;;;5003305;28;20173;-73
2023/07/17 05:33:58;;;;;;;10.10;2.30;;;17.70;99.90;;;;;;5002474;28;20546;-71
2023/07/17 05:36:24;;;;;;;3.70;1.90;;;17.80;99.90;;;;;;5002917;28;20233;-73
2023/07/17 05:38:49;;;;;;;2.67;2.40;;;17.90;99.90;;;;;;5003060;28;20827;-73
2023/07/17 05:41:15;;;;;;;7.90;2.40;;;18.10;99.90;;;;;;5003999;28;20204;-73
2023/07/17 05:43:40;;;;;;;2.40;1.60;;;18.40;99.90;;;;;;5003267;28;20269;-73
2023/07/17 05:46:06;;;;;;;2.13;1.80;;;18.80;99.90;;;;;;5002923;28;20165;-73
2023/07/17 05:48:31;;;;;;;2.87;1.80;;;19.10;99.90;;;;;;5005609;28;20188;-72
2023/07/17 05:50:57;;;;;;;5.70;1.70;;;19.40;99.90;;;;;;5001596;28;20173;-72
2023/07/17 05:53:22;;;;;;;5.20;3.10;;;19.40;99.90;;;;;;5004943;28;20259;-74
2023/07/17 05:55:48;;;;;;;4.10;3.70;;;19.30;99.90;;;;;;5003561;28;20177;-70
2023/07/17 05:58:13;;;;;;;3.23;2.57;;;19.20;99.90;;;;;;4993165;28;20189;-71
2023/07/17 06:00:39;;;;;;;4.40;2.87;;;19.10;99.90;;;;;;4993078;28;20203;-72
2023/07/17 06:03:05;;;;;;;3.90;2.17;;;19.00;99.90;;;;;;4993112;28;20173;-71
2023/07/17 06:05:35;;;;;;;3.53;2.23;;;19.00;99.90;;;;;;4992829;28;20665;-71
2023/07/17 06:08:00;;;;;;;4.03;2.33;;;19.10;99.90;;;;;;4992872;28;20458;-71
2023/07/17 06:10:26;;;;;;;4.83;2.33;;;19.60;99.90;;;;;;4992802;28;20782;-72
2023/07/17 06:12:52;;;;;;;2.57;1.27;;;20.20;99.90;;;;;;4993090;28;20187;-72
2023/07/17 06:15:17;;;;;;;2.60;1.97;;;21.00;99.90;;;;;;4992615;28;20185;-72
2023/07/17 06:17:43;;;;;;;3.00;1.80;;;21.80;99.90;;;;;;4992703;28;20266;-72
2023/07/17 06:20:09;;;;;;;2.70;1.90;;;22.60;99.90;;;;;;4992552;28;20203;-72
2023/07/17 06:22:35;;;;;;;5.00;2.50;;;23.20;99.90;;;;;;4992894;28;20527;-72
2023/07/17 06:25:00;;;;;;;3.97;2.37;;;23.80;99.90;;;;;;4992569;28;20400;-71
2023/07/17 06:27:26;;;;;;;4.47;2.00;;;24.50;99.90;;;;;;4992775;28;20540;-72
2023/07/17 06:29:51;;;;;;;4.90;2.37;;;25.20;99.90;;;;;;4991945;28;20173;-71
2023/07/17 06:32:17;;;;;;;2.47;1.93;;;25.50;97.00;;;;;;4991471;28;20578;-72
2023/07/17 06:34:42;;;;;;;2.70;2.03;;;26.20;94.90;;;;;;4992733;28;20611;-72
2023/07/17 06:37:08;;;;;;;6.30;2.80;;;26.90;89.60;;;;;;4992446;28;20169;-72
2023/07/17 06:39:34;;;;;;;4.87;3.23;;;27.80;83.90;;;;;;4995334;28;20193;-73
2023/07/17 06:41:59;;;;;;;4.53;2.40;;;28.60;69.10;;;;;;5000595;28;20637;-72
2023/07/17 06:44:25;;;;;;;4.23;2.40;;;28.70;62.70;;;;;;4992619;28;20627;-69
2023/07/17 06:46:50;;;;;;;3.33;2.10;;;29.30;61.10;;;;;;4992340;28;20259;-69
2023/07/17 06:49:16;;;;;;;3.50;2.93;;;29.90;58.10;;;;;;4992569;28;20189;-69
2023/07/17 06:51:41;;;;;;;4.10;2.60;;;30.60;53.60;;;;;;4992537;28;20173;-69
2023/07/17 06:54:07;;;;;;;3.53;2.93;;;30.60;51.10;;;;;;4994646;28;20541;-72
2023/07/17 06:56:32;;;;;;;6.07;3.00;;;30.60;50.60;;;;;;4994943;28;20192;-71
2023/07/17 06:58:58;;;;;;;3.87;2.87;;;31.20;50.20;;;;;;4992260;28;20232;-70
2023/07/17 07:01:23;;;;;;;3.47;2.40;;;31.80;47.90;;;;;;4992195;28;20219;-70
2023/07/17 07:03:49;;;;;;;3.97;2.60;;;32.40;46.60;;;;;;4992240;28;20165;-71
2023/07/17 07:06:14;;;;;;;4.30;2.90;;;33.00;46.10;;;;;;4992036;28;20177;-71
2023/07/17 07:08:42;;;;;;;3.33;2.60;;;34.20;45.30;;;;;;4992404;28;20192;-70
2023/07/17 07:11:08;;;;;;;4.07;2.90;;;34.50;41.50;;;;;;4992362;28;20165;-71
2023/07/17 07:13:34;;;;;;;3.00;2.60;;;35.10;40.80;;;;;;4992398;28;20404;-70
2023/07/17 07:15:59;;;;;;;3.47;2.90;;;36.10;39.60;;;;;;4992365;28;20465;-71
2023/07/17 07:18:25;;;;;;;3.33;3.07;;;36.00;37.00;;;;;;4992171;28;20188;-70
2023/07/17 07:20:51;;;;;;;4.57;2.90;;;36.30;37.50;;;;;;4992335;28;20237;-71
2023/07/17 07:23:17;;;;;;;3.13;2.53;;;36.30;36.00;;;;;;4992114;28;20172;-70
2023/07/17 07:25:43;;;;;;;3.40;2.63;;;36.20;34.70;;;;;;4992074;28;20379;-71
2023/07/17 07:28:10;;;;;;;4.10;2.60;;;36.20;35.30;;;;;;4992205;28;20221;-70
2023/07/17 07:30:35;;;;;;;2.43;2.20;;;36.50;34.70;;;;;;4992226;28;20578;-70
2023/07/17 07:33:01;;;;;;;4.20;2.63;;;37.50;34.40;;;;;;4992088;28;20487;-70
2023/07/17 07:35:26;;;;;;;7.17;4.37;;;38.00;33.20;;;;;;4991921;28;20247;-71
2023/07/17 07:37:52;;;;;;;4.30;3.90;;;39.30;32.80;;;;;;4992041;28;20247;-70
2023/07/17 07:40:18;;;;;;;3.67;2.87;;;40.40;30.80;;;;;;4992466;28;20216;-70
2023/07/17 07:42:44;;;;;;;3.80;2.80;;;40.00;29.00;;;;;;4997119;28;20177;-71
2023/07/17 07:45:11;;;;;;;2.80;2.60;;;40.00;30.20;;;;;;4995525;28;20176;-72
2023/07/17 07:47:37;;;;;;;3.33;2.90;;;41.10;30.60;;;;;;4995524;28;20398;-72
2023/07/17 07:50:03;;;;;;;4.20;3.17;;;41.50;27.50;;;;;;4995342;28;20491;-70
2023/07/17 07:52:29;;;;;;;3.23;2.93;;;41.80;27.50;;;;;;4995623;28;20419;-70
2023/07/17 07:54:54;;;;;;;5.60;3.03;;;42.60;27.40;;;;;;4995327;28;20386;-70
2023/07/17 07:57:20;;;;;;;3.60;3.23;;;42.40;26.00;;;;;;4994979;28;20180;-71
2023/07/17 07:59:46;;;;;;;3.87;3.50;;;43.10;27.00;;;;;;4996279;28;20165;-73
2023/07/17 08:02:12;;;;;;;4.63;3.73;;;42.80;24.30;;;;;;4998477;28;20176;-72
2023/07/17 08:04:38;;;;;;;4.60;4.20;;;41.50;25.20;;;;;;4999756;28;20200;-73
2023/07/17 08:07:04;;;;;;;4.97;4.33;;;40.90;25.00;;;;;;4996179;28;20428;-71
2023/07/17 08:09:30;;;;;;;5.73;3.43;;;39.50;25.20;;;;;;4996867;28;20731;-73
2023/07/17 08:11:56;;;;;;;3.77;3.47;;;39.30;26.10;;;;;;4997127;28;20386;-73
2023/07/17 08:14:22;;;;;;;4.47;3.30;;;39.50;26.00;;;;;;4995563;28;20382;-73
2023/07/17 08:16:51;;;;;;;3.93;2.80;;;40.30;26.30;;;;;;4994876;28;20605;-71
2023/07/17 08:19:17;;;;;;;4.23;3.40;;;40.50;25.80;;;;;;4995919;28;20268;-72
2023/07/17 08:21:43;;;;;;;5.40;3.97;;;41.60;26.70;;;;;;4995850;28;20429;-70
2023/07/17 08:24:12;;;;;;;6.53;4.30;;;42.20;25.50;;;;;;4994977;28;20375;-71
2023/07/17 08:26:38;;;;;;;5.77;3.40;;;43.50;25.90;;;;;;4994630;28;20220;-70
2023/07/17 08:29:05;;;;;;;5.10;4.00;;;45.00;25.60;;;;;;4994852;28;20395;-70
2023/07/17 08:31:33;;;;;;;4.70;4.20;;;45.70;23.30;;;;;;4994783;28;20454;-70
2023/07/17 08:34:03;;;;;;;5.57;3.83;;;44.80;22.40;;;;;;4994864;28;20423;-71
2023/07/17 08:36:29;;;;;;;4.63;4.13;;;44.90;23.00;;;;;;4993477;28;20395;-72
2023/07/17 08:38:55;;;;;;;5.60;3.77;;;45.20;23.80;;;;;;4994904;28;20455;-71
2023/07/17 08:41:24;;;;;;;4.80;3.90;;;44.70;22.30;;;;;;4994615;28;20494;-70
2023/07/17 08:43:51;;;;;;;4.00;3.27;;;44.70;23.20;;;;;;4994724;28;20200;-72
2023/07/17 08:46:17;;;;;;;3.93;3.63;;;45.70;23.40;;;;;;4994531;28;20404;-70
2023/07/17 08:48:44;;;;;;;3.87;3.43;;;44.80;22.00;;;;;;4995649;28;20481;-72
2023/07/17 08:51:13;;;;;;;4.00;3.60;;;44.60;22.40;;;;;;4995158;28;20177;-71
2023/07/17 08:53:41;;;;;;;4.47;3.70;;;45.00;22.80;;;;;;4993890;28;20406;-71
2023/07/17 08:56:07;;;;;;;5.13;4.20;;;45.20;21.90;;;;;;4994423;28;20382;-74
2023/07/17 08:58:33;;;;;;;4.53;3.60;;;45.40;22.60;;;;;;4993899;28;20915;-73
2023/07/17 09:01:00;;;;;;;3.67;3.13;;;44.80;22.10;;;;;;4997007;28;20466;-74
2023/07/17 09:03:25;;;;;;;4.87;3.77;;;45.30;23.10;;;;;;4995024;28;20953;-73
2023/07/17 09:05:51;;;;;;;5.30;3.70;;;45.70;22.30;;;;;;4994019;28;20407;-73
2023/07/17 09:08:17;;;;;;;4.40;3.67;;;45.70;21.90;;;;;;4994710;28;20255;-73
2023/07/17 09:10:43;;;;;;;5.13;3.97;;;45.50;21.40;;;;;;4994698;28;20634;-73
2023/07/17 09:13:09;;;;;;;3.63;3.33;;;45.60;22.50;;;;;;4994093;28;20580;-72
2023/07/17 09:15:35;;;;;;;4.10;3.80;;;46.10;22.60;;;;;;4993736;28;20371;-72
2023/07/17 09:18:02;;;;;;;4.00;3.60;;;46.20;22.40;;;;;;4993938;28;20391;-72
2023/07/17 09:20:27;;;;;;;3.67;3.37;;;46.80;22.50;;;;;;4993893;28;20456;-73
2023/07/17 09:23:00;;;;;;;4.70;3.47;;;47.20;22.50;;;;;;4993474;28;20400;-73
2023/07/17 09:25:27;;;;;;;6.30;3.80;;;47.90;22.20;;;;;;4994118;28;20173;-74
2023/07/17 09:27:53;;;;;;;5.30;3.97;;;48.30;21.70;;;;;;4994414;28;20409;-73
2023/07/17 09:30:25;;;;;;;4.03;3.63;;;48.30;20.70;;;;;;4994086;28;20408;-73
2023/07/17 09:32:51;;;;;;;3.40;3.10;;;47.60;20.40;;;;;;4994356;28;20225;-73
2023/07/17 09:35:23;;;;;;;5.70;3.87;;;47.30;21.60;;;;;;4993561;28;20412;-73
2023/07/17 09:37:49;;;;;;;4.93;3.70;;;46.70;21.60;;;;;;4993803;28;20403;-72
2023/07/17 09:40:18;;;;;;;4.73;3.80;;;47.00;21.20;;;;;;4994068;28;20422;-73
2023/07/17 09:42:50;;;;;;;3.43;3.10;;;45.70;20.70;;;;;;4993931;28;20383;-73
2023/07/17 09:45:18;;;;;;;5.93;3.57;;;44.50;21.20;;;;;;4994399;28;20558;-73
2023/07/17 09:47:44;;;;;;;4.37;3.77;;;43.80;21.90;;;;;;4994612;28;20482;-74
2023/07/17 09:50:09;;;;;;;4.80;3.70;;;44.90;23.20;;;;;;4994095;28;20844;-73
2023/07/17 09:52:35;;;;;;;4.87;4.00;;;45.60;22.00;;;;;;4993720;28;20232;-73
2023/07/17 09:55:00;;;;;;;3.60;2.77;;;44.60;21.80;;;;;;4993881;28;20212;-73
2023/07/17 09:57:38;;;;;;;4.53;3.70;;;44.10;22.40;;;;;;4993860;28;20615;-73
2023/07/17 10:00:13;;;;;;;4.13;3.33;;;43.80;22.70;;;;;;4993704;28;20188;-72
2023/07/17 10:02:47;;;;;;;5.73;3.50;;;42.70;23.30;;;;;;4993614;28;20381;-73
2023/07/17 10:05:12;;;;;;;6.50;4.03;;;42.00;23.00;;;;;;4992852;28;20371;-73
2023/07/17 10:07:42;;;;;;;4.23;3.60;;;40.70;23.00;;;;;;4992986;28;20934;-72
2023/07/17 10:10:09;;;;;;;4.07;3.77;;;40.70;24.00;;;;;;4993914;28;20173;-73
2023/07/17 10:12:37;;;;;;;4.40;3.00;;;42.20;25.00;;;;;;4993405;28;20445;-73
2023/07/17 10:15:03;;;;;;;6.53;4.00;;;44.10;25.00;;;;;;4993063;28;20383;-73
2023/07/17 10:17:34;;;;;;;9.27;3.90;;;46.20;24.30;;;;;;4993195;28;20404;-73
2023/07/17 10:20:08;;;;;;;6.00;3.90;;;48.20;22.70;;;;;;4993384;28;21006;-74
2023/07/17 10:22:43;;;;;;;6.40;5.80;;;48.90;20.60;;;;;;4993277;28;20746;-73
2023/07/17 10:25:18;;;;;;;3.43;3.13;;;49.30;21.90;;;;;;4993336;28;20760;-73
2023/07/17 10:27:58;;;;;;;4.10;3.50;;;49.10;20.00;;;;;;4993428;28;20431;-73
2023/07/17 10:30:27;;;;;;;4.40;3.47;;;48.10;19.70;;;;;;4993394;28;20400;-73
2023/07/17 10:33:15;;;;;;;4.67;3.70;;;47.20;20.70;;;;;;4993027;28;20416;-73
2023/07/17 10:35:56;;;;;;;4.80;4.30;;;46.40;21.50;;;;;;4991395;28;20416;-73
2023/07/17 10:38:31;;;;;;;4.83;4.37;;;46.60;20.90;;;;;;4993708;28;20851;-74
2023/07/17 10:41:06;;;;;;;3.87;3.57;;;46.50;21.30;;;;;;4993805;28;20434;-73
2023/07/17 10:43:34;;;;;;;7.90;4.17;;;45.60;20.30;;;;;;4992804;28;20890;-73
2023/07/17 10:46:06;;;;;;;4.73;4.13;;;45.10;21.90;;;;;;4992534;28;20404;-72
2023/07/17 10:48:34;;;;;;;7.17;3.87;;;45.90;22.60;;;;;;4992755;28;20397;-73
2023/07/17 10:50:59;;;;;;;9.30;4.33;;;47.40;22.60;;;;;;4992741;28;20411;-73
2023/07/17 10:53:25;;;;;;;5.63;3.93;;;48.20;21.70;;;;;;4992921;28;20808;-73
2023/07/17 10:55:51;;;;;;;5.07;3.80;;;48.60;21.30;;;;;;4992603;28;20169;-73
2023/07/17 10:58:20;;;;;;;5.00;3.20;;;47.60;19.60;;;;;;4992587;28;20292;-72
2023/07/17 11:00:47;;;;;;;4.00;3.70;;;45.80;20.30;;;;;;4992565;28;21064;-74
2023/07/17 11:03:14;;;;;;;3.53;3.13;;;45.50;21.40;;;;;;4992742;28;20382;-74
2023/07/17 11:05:40;;;;;;;4.00;3.60;;;45.60;20.70;;;;;;4992760;28;20385;-73
2023/07/17 11:08:07;;;;;;;4.10;3.70;;;45.40;20.80;;;;;;4992486;28;20434;-73
2023/07/17 11:10:38;;;;;;;3.73;3.43;;;45.40;21.30;;;;;;4992492;28;20393;-73
2023/07/17 11:13:04;;;;;;;3.77;3.40;;;45.50;20.70;;;;;;4992830;28;20796;-73
2023/07/17 11:15:35;;;;;;;4.10;3.70;;;44.00;21.30;;;;;;4993002;28;20383;-73
2023/07/17 11:18:05;;;;;;;3.77;3.47;;;43.50;22.80;;;;;;4996192;28;20417;-73
2023/07/17 11:20:32;;;;;;;4.50;4.10;;;44.10;23.60;;;;;;4996457;28;20477;-74
2023/07/17 11:22:58;;;;;;;6.90;6.20;;;44.80;22.20;;;;;;4996400;28;20894;-73
2023/07/17 11:25:33;;;;;;;10.30;8.10;;;46.20;23.00;;;;;;4995776;28;20378;-74
2023/07/17 11:27:59;;;;;;;23.77;21.83;;;47.50;22.20;;;;;;4996050;28;20929;-73
2023/07/17 11:30:28;;;;;;;10.27;9.00;;;48.60;22.00;;;;;;4996137;28;20574;-73
2023/07/17 11:33:04;;;;;;;34.47;31.40;;;49.80;21.40;;;;;;4996079;28;20431;-73
2023/07/17 11:35:47;;;;;;;20.07;18.27;;;50.20;20.40;;;;;;4995517;28;20485;-73
2023/07/17 11:38:15;;;;;;;6.67;6.13;;;49.00;20.80;;;;;;4995896;28;20801;-73
2023/07/17 11:40:55;;;;;;;5.93;5.43;;;47.10;20.90;;;;;;4995868;28;20455;-73
2023/07/17 11:43:28;;;;;;;6.47;5.97;;;45.10;21.40;;;;;;4995811;28;20386;-74
2023/07/17 11:45:56;;;;;;;7.53;4.40;;;44.80;22.60;;;;;;4995829;28;20716;-74
2023/07/17 11:48:24;;;;;;;9.23;8.47;;;44.80;22.50;;;;;;4995808;28;20399;-73
2023/07/17 11:50:49;;;;;;;9.70;8.90;;;44.00;22.30;;;;;;4995686;28;20390;-74
2023/07/17 11:53:16;;;;;;;7.63;6.87;;;43.60;23.30;;;;;;4995690;28;20412;-74
2023/07/17 11:55:43;;;;;;;6.30;5.80;;;45.10;23.40;;;;;;4995065;28;20600;-73
2023/07/17 11:58:19;;;;;;;4.93;4.53;;;45.80;21.30;;;;;;4995698;28;20399;-74
2023/07/17 12:00:46;;;;;;;5.60;4.83;;;44.70;21.50;;;;;;4995566;28;20433;-74
2023/07/17 12:03:11;;;;;;;5.73;4.70;;;43.70;22.20;;;;;;4995752;28;20437;-74
2023/07/17 12:05:37;;;;;;;3.90;3.60;;;43.30;22.10;;;;;;4995351;28;20375;-74
2023/07/17 12:08:04;;;;;;;5.60;5.10;;;43.00;22.90;;;;;;4995085;28;20197;-74
2023/07/17 12:10:30;;;;;;;4.70;4.30;;;43.10;23.50;;;;;;4995399;28;20404;-74
2023/07/17 12:12:56;;;;;;;5.80;5.10;;;43.90;23.20;;;;;;4995347;28;20393;-74
2023/07/17 12:15:25;;;;;;;3.53;3.23;;;45.50;23.50;;;;;;4995181;28;20527;-74
2023/07/17 12:17:50;;;;;;;4.37;3.90;;;46.80;22.80;;;;;;4995407;28;20470;-73
2023/07/17 12:20:16;;;;;;;3.90;3.50;;;47.70;21.20;;;;;;4995454;28;20466;-74
2023/07/17 12:22:42;;;;;;;9.03;6.23;;;48.50;21.30;;;;;;4995390;28;20177;-74
2023/07/17 12:25:08;;;;;;;10.97;6.47;;;48.30;20.90;;;;;;4995080;28;20164;-74
2023/07/17 12:27:34;;;;;;;6.37;5.33;;;47.60;21.30;;;;;;4995124;28;20429;-74
2023/07/17 12:29:59;;;;;;;5.47;4.97;;;46.80;21.60;;;;;;4995140;28;21016;-74
2023/07/17 12:32:25;;;;;;;7.00;4.77;;;46.50;22.20;;;;;;4995394;28;20176;-74
2023/07/17 12:34:50;;;;;;;6.00;4.23;;;47.30;22.10;;;;;;4995109;28;20165;-73
2023/07/17 12:37:16;;;;;;;6.57;5.20;;;48.40;21.60;;;;;;4995193;28;20255;-74
2023/07/17 12:39:41;;;;;;;5.60;4.63;;;48.30;21.20;;;;;;4995394;28;20627;-74
2023/07/17 12:42:07;;;;;;;4.50;3.90;;;48.10;21.10;;;;;;4995143;28;20161;-73